sensor_id;sensor_type;location;lat;lon;timestamp;pressure;altitude;pressure_sealevel;temperature;humidity
29215;BME280;16252;49.816;7.964;2023-03-19T00:01:08;99689.19;;;12.95;55.43
29215;BME280;16252;49.816;7.964;2023-03-19T00:03:34;99708.84;;;13.06;55.48
29215;BME280;16252;49.816;7.964;2023-03-19T00:06:00;99697.69;;;13.00;55.63
29215;BME280;16252;49.816;7.964;2023-03-19T00:08:25;99687.94;;;12.90;55.50
29215;BME280;16252;49.816;7.964;2023-03-19T00:10:51;99722.00;;;13.09;55.60
29215;BME280;16252;49.816;7.964;2023-03-19T00:13:17;99699.94;;;12.95;55.58
29215;BME280;16252;49.816;7.964;2023-03-19T00:15:42;99703.47;;;12.96;55.63
29215;BME280;16252;49.816;7.964;2023-03-19T00:18:08;99696.53;;;12.93;55.75
29215;BME280;16252;49.816;7.964;2023-03-19T00:20:33;99706.03;;;12.97;55.63
29215;BME280;16252;49.816;7.964;2023-03-19T00:22:59;99727.09;;;13.02;55.65
29215;BME280;16252;49.816;7.964;2023-03-19T00:25:24;99714.38;;;12.94;55.79
29215;BME280;16252;49.816;7.964;2023-03-19T00:27:50;99679.44;;;12.75;55.98
29215;BME280;16252;49.816;7.964;2023-03-19T00:30:16;99695.16;;;12.89;55.93
29215;BME280;16252;49.816;7.964;2023-03-19T00:32:42;99720.88;;;13.01;55.79
29215;BME280;16252;49.816;7.964;2023-03-19T00:35:08;99721.84;;;13.00;55.96
29215;BME280;16252;49.816;7.964;2023-03-19T00:37:35;99720.16;;;12.99;55.99
29215;BME280;16252;49.816;7.964;2023-03-19T00:40:02;99694.84;;;12.83;56.07
29215;BME280;16252;49.816;7.964;2023-03-19T00:42:29;99716.47;;;12.91;56.06
29215;BME280;16252;49.816;7.964;2023-03-19T00:44:54;99714.19;;;12.86;56.04
29215;BME280;16252;49.816;7.964;2023-03-19T00:47:19;99698.22;;;12.75;56.03
29215;BME280;16252;49.816;7.964;2023-03-19T00:49:45;99720.28;;;12.88;56.12
29215;BME280;16252;49.816;7.964;2023-03-19T00:52:10;99714.47;;;12.83;56.16
29215;BME280;16252;49.816;7.964;2023-03-19T00:54:35;99716.88;;;12.86;56.19
29215;BME280;16252;49.816;7.964;2023-03-19T00:57:01;99705.56;;;12.83;56.32
29215;BME280;16252;49.816;7.964;2023-03-19T00:59:26;99708.13;;;12.84;56.26
29215;BME280;16252;49.816;7.964;2023-03-19T01:01:51;99699.38;;;12.82;56.39
29215;BME280;16252;49.816;7.964;2023-03-19T01:04:17;99687.47;;;12.75;56.43
29215;BME280;16252;49.816;7.964;2023-03-19T01:06:43;99696.25;;;12.77;56.56
29215;BME280;16252;49.816;7.964;2023-03-19T01:09:09;99700.34;;;12.81;56.58
29215;BME280;16252;49.816;7.964;2023-03-19T01:11:34;99675.59;;;12.68;56.65
29215;BME280;16252;49.816;7.964;2023-03-19T01:13:59;99691.00;;;12.75;56.78
29215;BME280;16252;49.816;7.964;2023-03-19T01:16:25;99696.09;;;12.78;56.94
29215;BME280;16252;49.816;7.964;2023-03-19T01:18:51;99704.44;;;12.85;56.63
29215;BME280;16252;49.816;7.964;2023-03-19T01:21:17;99680.97;;;12.68;56.65
29215;BME280;16252;49.816;7.964;2023-03-19T01:23:42;99692.97;;;12.73;56.69
29215;BME280;16252;49.816;7.964;2023-03-19T01:26:08;99704.31;;;12.77;56.71
29215;BME280;16252;49.816;7.964;2023-03-19T01:28:33;99662.59;;;12.53;56.65
29215;BME280;16252;49.816;7.964;2023-03-19T01:31:00;99686.50;;;12.66;56.87
29215;BME280;16252;49.816;7.964;2023-03-19T01:33:26;99720.84;;;12.82;56.87
29215;BME280;16252;49.816;7.964;2023-03-19T01:35:51;99704.72;;;12.72;56.72
29215;BME280;16252;49.816;7.964;2023-03-19T01:38:17;99691.13;;;12.64;56.70
29215;BME280;16252;49.816;7.964;2023-03-19T01:40:44;99690.28;;;12.64;56.99
29215;BME280;16252;49.816;7.964;2023-03-19T01:43:20;99708.66;;;12.78;57.24
29215;BME280;16252;49.816;7.964;2023-03-19T01:45:49;99679.66;;;12.52;56.89
29215;BME280;16252;49.816;7.964;2023-03-19T01:48:19;99709.38;;;12.70;57.12
29215;BME280;16252;49.816;7.964;2023-03-19T01:50:47;99720.69;;;12.74;56.93
29215;BME280;16252;49.816;7.964;2023-03-19T01:53:16;99712.59;;;12.64;56.80
29215;BME280;16252;49.816;7.964;2023-03-19T01:55:42;99701.28;;;12.61;56.86
29215;BME280;16252;49.816;7.964;2023-03-19T01:58:08;99678.94;;;12.41;57.13
29215;BME280;16252;49.816;7.964;2023-03-19T02:00:34;99700.56;;;12.49;57.04
29215;BME280;16252;49.816;7.964;2023-03-19T02:03:02;99688.06;;;12.38;56.94
29215;BME280;16252;49.816;7.964;2023-03-19T02:05:28;99697.88;;;12.49;57.06
29215;BME280;16252;49.816;7.964;2023-03-19T02:07:57;99703.97;;;12.51;57.31
29215;BME280;16252;49.816;7.964;2023-03-19T02:10:24;99716.50;;;12.50;57.07
29215;BME280;16252;49.816;7.964;2023-03-19T02:12:51;99712.69;;;12.43;56.97
29215;BME280;16252;49.816;7.964;2023-03-19T02:15:16;99700.59;;;12.28;56.94
29215;BME280;16252;49.816;7.964;2023-03-19T02:17:42;99714.66;;;12.41;56.75
29215;BME280;16252;49.816;7.964;2023-03-19T02:22:50;99729.25;;;12.48;57.01
29215;BME280;16252;49.816;7.964;2023-03-19T02:28:14;99726.34;;;12.40;57.04
29215;BME280;16252;49.816;7.964;2023-03-19T02:30:41;99728.88;;;12.32;57.09
29215;BME280;16252;49.816;7.964;2023-03-19T02:33:12;99726.63;;;12.37;57.17
29215;BME280;16252;49.816;7.964;2023-03-19T02:35:37;99730.91;;;12.49;56.04
29215;BME280;16252;49.816;7.964;2023-03-19T02:38:03;99712.16;;;12.19;57.06
29215;BME280;16252;49.816;7.964;2023-03-19T02:40:32;99696.44;;;12.04;57.03
29215;BME280;16252;49.816;7.964;2023-03-19T02:42:58;99709.31;;;12.10;56.79
29215;BME280;16252;49.816;7.964;2023-03-19T02:45:27;99735.91;;;12.23;57.31
29215;BME280;16252;49.816;7.964;2023-03-19T02:47:53;99730.31;;;12.36;56.10
29215;BME280;16252;49.816;7.964;2023-03-19T02:50:18;99720.28;;;12.07;56.83
29215;BME280;16252;49.816;7.964;2023-03-19T02:52:44;99722.50;;;12.02;57.12
29215;BME280;16252;49.816;7.964;2023-03-19T02:55:09;99677.22;;;11.78;57.43
29215;BME280;16252;49.816;7.964;2023-03-19T02:57:35;99703.56;;;11.94;57.49
29215;BME280;16252;49.816;7.964;2023-03-19T03:00:00;99730.78;;;12.10;57.66
29215;BME280;16252;49.816;7.964;2023-03-19T03:02:26;99701.88;;;11.93;57.71
29215;BME280;16252;49.816;7.964;2023-03-19T03:04:51;99717.88;;;12.04;57.61
29215;BME280;16252;49.816;7.964;2023-03-19T03:07:16;99718.88;;;12.03;57.76
29215;BME280;16252;49.816;7.964;2023-03-19T03:09:42;99714.47;;;12.02;57.56
29215;BME280;16252;49.816;7.964;2023-03-19T03:12:07;99724.09;;;12.05;57.66
29215;BME280;16252;49.816;7.964;2023-03-19T03:14:33;99681.13;;;11.74;57.47
29215;BME280;16252;49.816;7.964;2023-03-19T03:16:59;99739.66;;;12.11;57.36
29215;BME280;16252;49.816;7.964;2023-03-19T03:19:24;99722.94;;;11.98;57.41
29215;BME280;16252;49.816;7.964;2023-03-19T03:21:49;99740.16;;;12.05;57.41
29215;BME280;16252;49.816;7.964;2023-03-19T03:24:15;99698.47;;;11.70;57.50
29215;BME280;16252;49.816;7.964;2023-03-19T03:26:40;99707.81;;;11.76;57.56
29215;BME280;16252;49.816;7.964;2023-03-19T03:29:06;99736.97;;;11.90;57.58
29215;BME280;16252;49.816;7.964;2023-03-19T03:31:32;99723.16;;;11.74;57.71
29215;BME280;16252;49.816;7.964;2023-03-19T03:33:58;99702.19;;;11.58;57.46
29215;BME280;16252;49.816;7.964;2023-03-19T03:36:24;99709.41;;;11.57;57.60
29215;BME280;16252;49.816;7.964;2023-03-19T03:38:49;99717.66;;;11.54;57.65
29215;BME280;16252;49.816;7.964;2023-03-19T03:41:15;99723.91;;;11.55;57.52
29215;BME280;16252;49.816;7.964;2023-03-19T03:43:40;99737.75;;;11.60;57.71
29215;BME280;16252;49.816;7.964;2023-03-19T03:46:06;99750.16;;;11.61;57.82
29215;BME280;16252;49.816;7.964;2023-03-19T03:48:33;99750.69;;;11.55;57.99
29215;BME280;16252;49.816;7.964;2023-03-19T03:50:58;99719.34;;;11.34;57.63
29215;BME280;16252;49.816;7.964;2023-03-19T03:53:24;99717.78;;;11.32;57.78
29215;BME280;16252;49.816;7.964;2023-03-19T03:55:50;99726.09;;;11.28;58.01
29215;BME280;16252;49.816;7.964;2023-03-19T03:58:15;99739.47;;;11.28;58.05
29215;BME280;16252;49.816;7.964;2023-03-19T04:00:41;99720.31;;;11.12;58.21
29215;BME280;16252;49.816;7.964;2023-03-19T04:03:06;99737.69;;;11.18;57.97
29215;BME280;16252;49.816;7.964;2023-03-19T04:05:31;99747.28;;;11.20;58.07
29215;BME280;16252;49.816;7.964;2023-03-19T04:07:57;99725.84;;;10.99;58.01
29215;BME280;16252;49.816;7.964;2023-03-19T04:10:22;99763.75;;;11.16;58.24
29215;BME280;16252;49.816;7.964;2023-03-19T04:12:48;99742.00;;;10.98;58.19
29215;BME280;16252;49.816;7.964;2023-03-19T04:15:14;99752.00;;;10.96;58.36
29215;BME280;16252;49.816;7.964;2023-03-19T04:17:39;99756.13;;;11.00;58.14
29215;BME280;16252;49.816;7.964;2023-03-19T04:20:06;99767.56;;;11.02;58.56
29215;BME280;16252;49.816;7.964;2023-03-19T04:22:32;99754.34;;;10.89;58.13
29215;BME280;16252;49.816;7.964;2023-03-19T04:24:57;99747.88;;;10.80;58.35
29215;BME280;16252;49.816;7.964;2023-03-19T04:27:22;99767.72;;;10.89;58.18
29215;BME280;16252;49.816;7.964;2023-03-19T04:29:48;99632.97;;;10.02;58.18
29215;BME280;16252;49.816;7.964;2023-03-19T04:32:13;99761.00;;;10.83;58.26
29215;BME280;16252;49.816;7.964;2023-03-19T04:34:39;99733.81;;;10.67;58.30
29215;BME280;16252;49.816;7.964;2023-03-19T04:37:05;99701.00;;;10.43;58.54
29215;BME280;16252;49.816;7.964;2023-03-19T04:39:31;99760.78;;;10.75;58.34
29215;BME280;16252;49.816;7.964;2023-03-19T04:41:57;99736.38;;;10.57;58.44
29215;BME280;16252;49.816;7.964;2023-03-19T04:44:22;99734.56;;;10.47;58.47
29215;BME280;16252;49.816;7.964;2023-03-19T04:46:48;99770.44;;;10.67;58.57
29215;BME280;16252;49.816;7.964;2023-03-19T04:49:13;99729.00;;;10.38;58.57
29215;BME280;16252;49.816;7.964;2023-03-19T04:51:40;99707.81;;;10.24;58.49
29215;BME280;16252;49.816;7.964;2023-03-19T04:54:06;99772.47;;;10.63;58.67
29215;BME280;16252;49.816;7.964;2023-03-19T04:56:31;99696.13;;;10.14;58.62
29215;BME280;16252;49.816;7.964;2023-03-19T04:58:57;99780.50;;;10.63;58.54
29215;BME280;16252;49.816;7.964;2023-03-19T05:01:22;99733.38;;;10.28;58.50
29215;BME280;16252;49.816;7.964;2023-03-19T05:03:48;99726.41;;;10.26;58.54
29215;BME280;16252;49.816;7.964;2023-03-19T05:06:14;99724.09;;;10.21;58.67
29215;BME280;16252;49.816;7.964;2023-03-19T05:08:39;99772.25;;;10.55;58.78
29215;BME280;16252;49.816;7.964;2023-03-19T05:11:04;99783.56;;;10.58;58.84
29215;BME280;16252;49.816;7.964;2023-03-19T05:13:30;99770.28;;;10.46;58.77
29215;BME280;16252;49.816;7.964;2023-03-19T05:15:55;99721.69;;;10.18;58.88
29215;BME280;16252;49.816;7.964;2023-03-19T05:18:21;99782.47;;;10.50;58.88
29215;BME280;16252;49.816;7.964;2023-03-19T05:20:46;99784.88;;;10.53;58.89
29215;BME280;16252;49.816;7.964;2023-03-19T05:23:12;99766.19;;;10.41;58.72
29215;BME280;16252;49.816;7.964;2023-03-19T05:25:38;99748.53;;;10.28;59.03
29215;BME280;16252;49.816;7.964;2023-03-19T05:28:03;99780.16;;;10.45;59.08
29215;BME280;16252;49.816;7.964;2023-03-19T05:30:29;99797.78;;;10.59;59.10
29215;BME280;16252;49.816;7.964;2023-03-19T05:32:56;99780.16;;;10.45;59.11
29215;BME280;16252;49.816;7.964;2023-03-19T05:35:22;99768.97;;;10.40;58.96
29215;BME280;16252;49.816;7.964;2023-03-19T05:37:48;99802.31;;;10.58;58.81
29215;BME280;16252;49.816;7.964;2023-03-19T05:40:14;99777.00;;;10.40;58.73
29215;BME280;16252;49.816;7.964;2023-03-19T05:42:40;99770.41;;;10.33;58.79
29215;BME280;16252;49.816;7.964;2023-03-19T05:45:06;99778.06;;;10.26;58.72
29215;BME280;16252;49.816;7.964;2023-03-19T05:47:31;99786.19;;;10.25;58.96
29215;BME280;16252;49.816;7.964;2023-03-19T05:49:58;99817.47;;;10.35;59.05
29215;BME280;16252;49.816;7.964;2023-03-19T05:52:23;99813.59;;;10.28;58.97
29215;BME280;16252;49.816;7.964;2023-03-19T05:54:48;99755.78;;;9.92;59.08
29215;BME280;16252;49.816;7.964;2023-03-19T05:57:15;99754.69;;;9.94;59.29
29215;BME280;16252;49.816;7.964;2023-03-19T05:59:40;99803.56;;;10.19;59.34
29215;BME280;16252;49.816;7.964;2023-03-19T06:02:06;99782.78;;;10.11;59.31
29215;BME280;16252;49.816;7.964;2023-03-19T06:04:31;99743.75;;;9.86;59.32
29215;BME280;16252;49.816;7.964;2023-03-19T06:06:56;99801.38;;;10.24;59.40
29215;BME280;16252;49.816;7.964;2023-03-19T06:09:22;99823.31;;;10.40;59.45
29215;BME280;16252;49.816;7.964;2023-03-19T06:11:47;99826.22;;;10.37;59.64
29215;BME280;16252;49.816;7.964;2023-03-19T06:14:12;99812.84;;;10.37;59.63
29215;BME280;16252;49.816;7.964;2023-03-19T06:16:38;99832.44;;;10.49;59.86
29215;BME280;16252;49.816;7.964;2023-03-19T06:19:03;99790.59;;;10.26;59.81
29215;BME280;16252;49.816;7.964;2023-03-19T06:21:28;99830.63;;;10.50;59.60
29215;BME280;16252;49.816;7.964;2023-03-19T06:23:57;99823.44;;;10.50;60.24
29215;BME280;16252;49.816;7.964;2023-03-19T06:26:23;99836.84;;;10.61;59.87
29215;BME280;16252;49.816;7.964;2023-03-19T06:28:49;99837.56;;;10.63;59.92
29215;BME280;16252;49.816;7.964;2023-03-19T06:31:14;99818.72;;;10.54;59.88
29215;BME280;16252;49.816;7.964;2023-03-19T06:33:39;99765.53;;;10.27;59.94
29215;BME280;16252;49.816;7.964;2023-03-19T06:36:06;99860.19;;;10.82;59.89
29215;BME280;16252;49.816;7.964;2023-03-19T06:38:32;99833.41;;;10.71;59.94
29215;BME280;16252;49.816;7.964;2023-03-19T06:40:57;99843.28;;;10.81;59.91
29215;BME280;16252;49.816;7.964;2023-03-19T06:43:22;99808.72;;;10.67;59.95
29215;BME280;16252;49.816;7.964;2023-03-19T06:45:48;99839.50;;;10.84;59.91
29215;BME280;16252;49.816;7.964;2023-03-19T06:48:13;99868.31;;;11.03;59.94
29215;BME280;16252;49.816;7.964;2023-03-19T06:50:38;99846.41;;;10.98;59.91
29215;BME280;16252;49.816;7.964;2023-03-19T06:53:04;99859.91;;;11.07;60.07
29215;BME280;16252;49.816;7.964;2023-03-19T06:55:29;99822.56;;;10.95;59.86
29215;BME280;16252;49.816;7.964;2023-03-19T06:57:55;99847.84;;;11.13;59.92
29215;BME280;16252;49.816;7.964;2023-03-19T07:00:21;99826.56;;;11.00;60.04
29215;BME280;16252;49.816;7.964;2023-03-19T07:02:46;99804.78;;;10.94;59.94
29215;BME280;16252;49.816;7.964;2023-03-19T07:05:12;99848.44;;;11.28;59.76
29215;BME280;16252;49.816;7.964;2023-03-19T07:07:37;99822.41;;;11.19;59.92
29215;BME280;16252;49.816;7.964;2023-03-19T07:10:02;99850.22;;;11.39;60.03
29215;BME280;16252;49.816;7.964;2023-03-19T07:12:28;99866.13;;;11.52;59.81
29215;BME280;16252;49.816;7.964;2023-03-19T07:14:53;99845.59;;;11.41;59.67
29215;BME280;16252;49.816;7.964;2023-03-19T07:17:23;99866.38;;;11.60;59.83
29215;BME280;16252;49.816;7.964;2023-03-19T07:19:49;99860.41;;;11.56;60.04
29215;BME280;16252;49.816;7.964;2023-03-19T07:22:15;99858.56;;;11.57;59.94
29215;BME280;16252;49.816;7.964;2023-03-19T07:24:40;99883.00;;;11.75;59.96
29215;BME280;16252;49.816;7.964;2023-03-19T07:27:05;99841.34;;;11.49;60.09
29215;BME280;16252;49.816;7.964;2023-03-19T07:29:31;99854.41;;;11.64;60.15
29215;BME280;16252;49.816;7.964;2023-03-19T07:31:56;99855.72;;;11.69;60.04
29215;BME280;16252;49.816;7.964;2023-03-19T07:34:22;99893.81;;;11.96;60.27
29215;BME280;16252;49.816;7.964;2023-03-19T07:36:47;99895.13;;;12.01;60.13
29215;BME280;16252;49.816;7.964;2023-03-19T07:39:13;99892.91;;;12.06;59.91
29215;BME280;16252;49.816;7.964;2023-03-19T07:41:38;99882.28;;;12.05;60.05
29215;BME280;16252;49.816;7.964;2023-03-19T07:44:03;99829.28;;;11.76;60.07
29215;BME280;16252;49.816;7.964;2023-03-19T07:46:29;99860.25;;;12.01;59.82
29215;BME280;16252;49.816;7.964;2023-03-19T07:48:54;99843.72;;;11.96;59.87
29215;BME280;16252;49.816;7.964;2023-03-19T07:51:19;99897.63;;;12.35;59.72
29215;BME280;16252;49.816;7.964;2023-03-19T07:53:45;99828.34;;;11.98;59.75
29215;BME280;16252;49.816;7.964;2023-03-19T07:56:11;99835.03;;;12.04;59.72
29215;BME280;16252;49.816;7.964;2023-03-19T07:58:36;99855.75;;;12.23;59.75
29215;BME280;16252;49.816;7.964;2023-03-19T08:01:01;99873.69;;;12.43;59.59
29215;BME280;16252;49.816;7.964;2023-03-19T08:03:27;99863.47;;;12.37;59.75
29215;BME280;16252;49.816;7.964;2023-03-19T08:05:53;99862.41;;;12.49;59.93
29215;BME280;16252;49.816;7.964;2023-03-19T08:08:18;99874.38;;;12.66;59.63
29215;BME280;16252;49.816;7.964;2023-03-19T08:10:44;99855.53;;;12.56;59.66
29215;BME280;16252;49.816;7.964;2023-03-19T08:13:09;99848.50;;;12.65;59.63
29215;BME280;16252;49.816;7.964;2023-03-19T08:15:34;99884.66;;;12.92;59.90
29215;BME280;16252;49.816;7.964;2023-03-19T08:18:01;99890.78;;;13.04;59.64
29215;BME280;16252;49.816;7.964;2023-03-19T08:20:28;99848.44;;;12.86;59.64
29215;BME280;16252;49.816;7.964;2023-03-19T08:22:53;99886.59;;;13.20;59.63
29215;BME280;16252;49.816;7.964;2023-03-19T08:25:18;99890.31;;;13.29;59.68
29215;BME280;16252;49.816;7.964;2023-03-19T08:27:44;99869.06;;;13.26;59.64
29215;BME280;16252;49.816;7.964;2023-03-19T08:30:10;99885.28;;;13.46;59.50
29215;BME280;16252;49.816;7.964;2023-03-19T08:32:35;99865.47;;;13.47;59.67
29215;BME280;16252;49.816;7.964;2023-03-19T08:35:02;99878.66;;;13.69;59.60
29215;BME280;16252;49.816;7.964;2023-03-19T08:37:27;99862.25;;;13.72;59.45
29215;BME280;16252;49.816;7.964;2023-03-19T08:39:52;99839.47;;;13.66;59.05
29215;BME280;16252;49.816;7.964;2023-03-19T08:42:18;99860.56;;;13.91;58.72
29215;BME280;16252;49.816;7.964;2023-03-19T08:44:45;99882.22;;;14.08;58.86
29215;BME280;16252;49.816;7.964;2023-03-19T08:47:10;99863.50;;;14.07;58.51
29215;BME280;16252;49.816;7.964;2023-03-19T08:49:36;99885.03;;;14.26;58.68
29215;BME280;16252;49.816;7.964;2023-03-19T08:52:01;99881.91;;;14.31;58.37
29215;BME280;16252;49.816;7.964;2023-03-19T08:54:26;99876.53;;;14.31;58.34
29215;BME280;16252;49.816;7.964;2023-03-19T08:56:52;99847.91;;;14.20;57.64
29215;BME280;16252;49.816;7.964;2023-03-19T08:59:17;99869.72;;;14.37;57.82
29215;BME280;16252;49.816;7.964;2023-03-19T09:01:42;99839.28;;;14.26;57.66
29215;BME280;16252;49.816;7.964;2023-03-19T09:04:08;99899.44;;;14.64;57.70
29215;BME280;16252;49.816;7.964;2023-03-19T09:06:33;99886.13;;;14.63;57.38
29215;BME280;16252;49.816;7.964;2023-03-19T09:08:58;99886.41;;;14.60;57.51
29215;BME280;16252;49.816;7.964;2023-03-19T09:11:24;99872.41;;;14.56;57.32
29215;BME280;16252;49.816;7.964;2023-03-19T09:13:49;99772.53;;;13.93;57.15
29215;BME280;16252;49.816;7.964;2023-03-19T09:16:14;99896.59;;;14.66;56.86
29215;BME280;16252;49.816;7.964;2023-03-19T09:18:40;99897.72;;;14.63;57.05
29215;BME280;16252;49.816;7.964;2023-03-19T09:21:05;99803.34;;;14.08;56.85
29215;BME280;16252;49.816;7.964;2023-03-19T09:23:30;99909.06;;;14.77;56.69
29215;BME280;16252;49.816;7.964;2023-03-19T09:25:56;99743.09;;;13.81;56.25
29215;BME280;16252;49.816;7.964;2023-03-19T09:28:21;99912.41;;;14.88;56.47
29215;BME280;16252;49.816;7.964;2023-03-19T09:30:48;99909.13;;;14.94;56.50
29215;BME280;16252;49.816;7.964;2023-03-19T09:33:15;99916.91;;;14.98;56.33
29215;BME280;16252;49.816;7.964;2023-03-19T09:35:41;99908.78;;;15.07;55.92
29215;BME280;16252;49.816;7.964;2023-03-19T09:38:07;99881.19;;;14.95;55.77
29215;BME280;16252;49.816;7.964;2023-03-19T09:40:34;99912.69;;;15.23;55.49
29215;BME280;16252;49.816;7.964;2023-03-19T09:45:51;99911.19;;;15.38;54.83
29215;BME280;16252;49.816;7.964;2023-03-19T09:48:33;99888.53;;;15.31;54.74
29215;BME280;16252;49.816;7.964;2023-03-19T09:51:04;99906.75;;;15.47;54.50
29215;BME280;16252;49.816;7.964;2023-03-19T09:56:06;99909.56;;;15.55;53.83
29215;BME280;16252;49.816;7.964;2023-03-19T09:58:34;99925.41;;;15.86;54.86
29215;BME280;16252;49.816;7.964;2023-03-19T10:01:00;99905.47;;;15.69;54.16
29215;BME280;16252;49.816;7.964;2023-03-19T10:11:23;99916.88;;;15.90;53.59
29215;BME280;16252;49.816;7.964;2023-03-19T10:14:35;99932.19;;;16.08;53.30
29215;BME280;16252;49.816;7.964;2023-03-19T10:17:04;99902.91;;;15.95;53.12
29215;BME280;16252;49.816;7.964;2023-03-19T10:19:48;99909.56;;;16.00;53.02
29215;BME280;16252;49.816;7.964;2023-03-19T10:22:18;99932.44;;;16.14;52.65
29215;BME280;16252;49.816;7.964;2023-03-19T10:24:46;99910.00;;;15.96;52.29
29215;BME280;16252;49.816;7.964;2023-03-19T10:27:15;99933.44;;;16.13;52.32
29215;BME280;16252;49.816;7.964;2023-03-19T10:29:41;99926.97;;;16.06;51.92
29215;BME280;16252;49.816;7.964;2023-03-19T10:34:40;99916.69;;;15.92;51.64
29215;BME280;16252;49.816;7.964;2023-03-19T10:37:17;99949.25;;;16.08;51.45
29215;BME280;16252;49.816;7.964;2023-03-19T10:39:46;99942.78;;;16.01;51.59
29215;BME280;16252;49.816;7.964;2023-03-19T10:43:44;99916.69;;;15.92;51.90
29215;BME280;16252;49.816;7.964;2023-03-19T10:45:38;99914.69;;;15.76;52.07
29215;BME280;16252;49.816;7.964;2023-03-19T10:48:04;99941.16;;;15.90;52.16
29215;BME280;16252;49.816;7.964;2023-03-19T10:55:47;99927.09;;;15.87;53.41
29215;BME280;16252;49.816;7.964;2023-03-19T10:58:17;99944.63;;;15.82;53.51
29215;BME280;16252;49.816;7.964;2023-03-19T11:00:47;99945.94;;;15.96;53.23
29215;BME280;16252;49.816;7.964;2023-03-19T11:03:37;99953.00;;;16.15;53.43
29215;BME280;16252;49.816;7.964;2023-03-19T11:06:15;99944.47;;;16.20;53.14
29215;BME280;16252;49.816;7.964;2023-03-19T11:09:11;99952.88;;;16.35;53.21
29215;BME280;16252;49.816;7.964;2023-03-19T11:11:44;99915.09;;;16.17;52.83
29215;BME280;16252;49.816;7.964;2023-03-19T11:14:17;99945.97;;;16.40;52.34
29215;BME280;16252;49.816;7.964;2023-03-19T11:19:21;99954.97;;;16.41;52.23
29215;BME280;16252;49.816;7.964;2023-03-19T11:24:37;99958.66;;;16.40;51.97
29215;BME280;16252;49.816;7.964;2023-03-19T11:27:03;99933.97;;;16.17;52.21
29215;BME280;16252;49.816;7.964;2023-03-19T11:29:29;99937.00;;;16.14;52.49
29215;BME280;16252;49.816;7.964;2023-03-19T11:32:24;99950.47;;;16.32;52.52
29215;BME280;16252;49.816;7.964;2023-03-19T11:34:57;99957.34;;;16.26;52.68
29215;BME280;16252;49.816;7.964;2023-03-19T11:40:13;99944.06;;;16.15;52.69
29215;BME280;16252;49.816;7.964;2023-03-19T11:43:03;99938.91;;;16.03;52.61
29215;BME280;16252;49.816;7.964;2023-03-19T11:49:19;99961.03;;;16.25;52.88
29215;BME280;16252;49.816;7.964;2023-03-19T11:51:49;99944.69;;;16.09;53.21
29215;BME280;16252;49.816;7.964;2023-03-19T11:54:26;99965.13;;;16.29;52.89
29215;BME280;16252;49.816;7.964;2023-03-19T11:57:03;99936.81;;;15.97;53.36
29215;BME280;16252;49.816;7.964;2023-03-19T11:59:44;99965.28;;;16.10;53.74
29215;BME280;16252;49.816;7.964;2023-03-19T12:08:18;99967.25;;;15.90;55.29
29215;BME280;16252;49.816;7.964;2023-03-19T12:13:54;99954.75;;;15.71;55.56
29215;BME280;16252;49.816;7.964;2023-03-19T12:19:19;99954.34;;;15.66;56.61
29215;BME280;16252;49.816;7.964;2023-03-19T12:22:19;99957.03;;;15.66;56.36
29215;BME280;16252;49.816;7.964;2023-03-19T12:24:57;99958.63;;;15.58;57.08
29215;BME280;16252;49.816;7.964;2023-03-19T12:30:29;99958.22;;;15.53;57.62
29215;BME280;16252;49.816;7.964;2023-03-19T12:35:49;99956.28;;;15.46;58.47
29215;BME280;16252;49.816;7.964;2023-03-19T12:38:37;99949.34;;;15.43;57.81
29215;BME280;16252;49.816;7.964;2023-03-19T12:41:07;99964.38;;;15.46;58.19
29215;BME280;16252;49.816;7.964;2023-03-19T12:43:50;99967.22;;;15.44;58.56
29215;BME280;16252;49.816;7.964;2023-03-19T12:46:42;99960.53;;;15.48;58.51
29215;BME280;16252;49.816;7.964;2023-03-19T12:49:30;99949.25;;;15.35;58.74
29215;BME280;16252;49.816;7.964;2023-03-19T12:52:19;99955.28;;;15.47;58.64
29215;BME280;16252;49.816;7.964;2023-03-19T12:54:54;99947.66;;;15.42;58.82
29215;BME280;16252;49.816;7.964;2023-03-19T12:57:30;99926.88;;;15.25;58.49
29215;BME280;16252;49.816;7.964;2023-03-19T13:02:52;99963.31;;;15.56;59.83
29215;BME280;16252;49.816;7.964;2023-03-19T13:05:25;99960.31;;;15.59;59.32
29215;BME280;16252;49.816;7.964;2023-03-19T13:10:36;99946.00;;;15.59;59.19
29215;BME280;16252;49.816;7.964;2023-03-19T13:13:14;99936.59;;;15.63;58.73
29215;BME280;16252;49.816;7.964;2023-03-19T13:15:48;99950.63;;;15.67;59.21
29215;BME280;16252;49.816;7.964;2023-03-19T13:18:39;99952.34;;;15.68;58.56
29215;BME280;16252;49.816;7.964;2023-03-19T13:23:49;99954.91;;;15.59;58.92
29215;BME280;16252;49.816;7.964;2023-03-19T13:26:16;99929.75;;;15.41;59.21
29215;BME280;16252;49.816;7.964;2023-03-19T13:29:25;99945.53;;;15.64;59.38
29215;BME280;16252;49.816;7.964;2023-03-19T13:31:52;99914.69;;;15.48;59.79
29215;BME280;16252;49.816;7.964;2023-03-19T13:34:25;99928.34;;;15.65;60.63
29215;BME280;16252;49.816;7.964;2023-03-19T13:36:54;99913.28;;;15.72;60.29
29215;BME280;16252;49.816;7.964;2023-03-19T13:39:27;99926.78;;;15.90;59.98
29215;BME280;16252;49.816;7.964;2023-03-19T13:42:07;99916.09;;;15.98;59.46
29215;BME280;16252;49.816;7.964;2023-03-19T13:44:53;99915.34;;;16.06;58.93
29215;BME280;16252;49.816;7.964;2023-03-19T13:58:13;99918.28;;;16.56;58.14
29215;BME280;16252;49.816;7.964;2023-03-19T14:01:06;99908.94;;;16.51;58.21
29215;BME280;16252;49.816;7.964;2023-03-19T14:03:35;99879.53;;;16.47;57.55
29215;BME280;16252;49.816;7.964;2023-03-19T14:06:01;99914.84;;;16.72;57.01
29215;BME280;16252;49.816;7.964;2023-03-19T14:08:32;99896.25;;;16.69;56.72
29215;BME280;16252;49.816;7.964;2023-03-19T14:11:00;99902.44;;;16.79;56.23
29215;BME280;16252;49.816;7.964;2023-03-19T14:13:30;99915.28;;;16.85;56.86
29215;BME280;16252;49.816;7.964;2023-03-19T14:16:21;99907.06;;;16.95;56.81
29215;BME280;16252;49.816;7.964;2023-03-19T14:18:48;99901.78;;;16.85;57.05
29215;BME280;16252;49.816;7.964;2023-03-19T14:21:16;99882.34;;;16.82;56.64